Time;durP1;ratioP1;P1;durP2;ratioP2;P2;SDS_P1;SDS_P2;PMS_P1;PMS_P2;Temp;Humidity;BMP_temperature;BMP_pressure;BME280_temperature;BME280_humidity;BME280_pressure;Samples;Min_cycle;Max_cycle;Signal;HPM_P1;HPM_P2
2022/03/01 00:00:59;;;;;;;20.48;3.15;;;21.00;99.60;;;;;;4991806;28;20038;-68
2022/03/01 00:03:26;;;;;;;15.93;2.08;;;21.00;99.60;;;;;;4992414;28;20437;-67
2022/03/01 00:05:54;;;;;;;21.35;2.85;;;21.00;99.50;;;;;;4992277;28;20053;-67
2022/03/01 00:08:21;;;;;;;19.58;3.42;;;20.90;99.50;;;;;;4990439;28;20014;-67
2022/03/01 00:10:48;;;;;;;23.73;3.72;;;20.90;99.50;;;;;;4992190;28;20122;-67
2022/03/01 00:13:15;;;;;;;21.48;2.70;;;21.00;99.60;;;;;;4990412;28;20038;-67
2022/03/01 00:15:42;;;;;;;15.38;2.20;;;20.90;99.50;;;;;;4991878;28;20048;-66
2022/03/01 00:18:09;;;;;;;25.70;3.20;;;20.90;99.50;;;;;;4990941;28;20023;-66
2022/03/01 00:20:37;;;;;;;17.80;4.03;;;20.90;99.50;;;;;;4991723;28;20039;-67
2022/03/01 00:23:04;;;;;;;16.92;3.42;;;20.80;99.40;;;;;;4974465;28;20271;-66
2022/03/01 00:25:31;;;;;;;22.70;4.20;;;20.90;99.50;;;;;;4992145;28;20499;-66
2022/03/01 00:27:58;;;;;;;27.83;4.60;;;20.90;99.50;;;;;;4990385;28;20022;-66
2022/03/01 00:30:26;;;;;;;18.38;2.58;;;20.90;99.50;;;;;;4991811;28;20030;-66
2022/03/01 00:32:53;;;;;;;19.65;2.95;;;20.80;99.40;;;;;;4991880;28;20014;-66
2022/03/01 00:35:20;;;;;;;16.95;3.20;;;20.80;99.40;;;;;;4992018;28;20392;-66
2022/03/01 00:37:47;;;;;;;21.92;3.15;;;20.80;99.50;;;;;;4991011;28;20387;-65
2022/03/01 00:40:14;;;;;;;22.35;3.85;;;20.80;99.40;;;;;;4990878;28;20049;-66
2022/03/01 00:42:41;;;;;;;25.20;3.88;;;20.80;99.50;;;;;;4974338;28;20034;-66
2022/03/01 00:45:09;;;;;;;25.10;2.90;;;20.80;99.40;;;;;;4991568;28;20050;-66
2022/03/01 00:47:36;;;;;;;25.25;2.85;;;20.80;99.40;;;;;;4992027;28;20033;-66
2022/03/01 00:50:04;;;;;;;21.83;3.90;;;20.80;99.40;;;;;;4991383;28;20105;-66
2022/03/01 00:52:31;;;;;;;17.98;2.83;;;20.80;99.40;;;;;;4990819;28;20049;-65
2022/03/01 00:54:58;;;;;;;19.27;3.40;;;20.80;99.40;;;;;;4991244;28;20460;-66
2022/03/01 00:57:25;;;;;;;21.58;3.22;;;20.80;99.50;;;;;;4991280;28;20026;-66
2022/03/01 00:59:53;;;;;;;16.17;2.45;;;20.80;99.40;;;;;;4991311;28;20050;-66
2022/03/01 01:02:22;;;;;;;;;;;20.70;99.30;;;;;;4991097;28;20050;-66
2022/03/01 01:04:49;;;;;;;14.27;1.83;;;20.70;99.40;;;;;;4991406;28;20040;-66
2022/03/01 01:07:17;;;;;;;16.52;2.10;;;20.70;99.40;;;;;;4989921;28;20101;-66
2022/03/01 01:09:44;;;;;;;17.80;2.58;;;20.70;99.40;;;;;;4991419;28;20035;-66
2022/03/01 01:12:11;;;;;;;15.20;2.67;;;20.80;99.50;;;;;;4991351;28;20022;-66
2022/03/01 01:14:38;;;;;;;17.65;2.67;;;20.80;99.40;;;;;;4990364;28;20026;-66
2022/03/01 01:17:05;;;;;;;16.20;2.90;;;20.80;99.50;;;;;;4991158;28;20018;-66
2022/03/01 01:19:33;;;;;;;28.27;4.30;;;20.90;99.50;;;;;;4973978;28;20118;-66
2022/03/01 01:24:45;;;;;;;20.65;4.20;;;21.20;99.60;;;;;;4990040;28;20440;-66
2022/03/01 01:27:12;;;;;;;24.48;2.97;;;21.10;99.50;;;;;;4990287;28;20392;-65
2022/03/01 01:29:40;;;;;;;30.90;5.05;;;21.00;99.50;;;;;;4991187;28;20023;-67
2022/03/01 01:32:08;;;;;;;18.17;2.40;;;21.10;99.60;;;;;;4990494;28;20050;-66
2022/03/01 01:34:35;;;;;;;28.13;3.90;;;21.00;99.50;;;;;;4991596;28;20517;-66
2022/03/01 01:37:02;;;;;;;26.67;3.65;;;21.00;99.50;;;;;;4991059;28;20440;-65
2022/03/01 01:39:29;;;;;;;21.20;3.13;;;21.00;99.50;;;;;;4991437;28;20028;-66
2022/03/01 01:41:57;;;;;;;32.50;2.90;;;20.90;99.50;;;;;;4991423;28;20508;-65
2022/03/01 01:44:24;;;;;;;29.50;4.70;;;20.80;99.40;;;;;;4990017;28;20037;-65
2022/03/01 01:46:51;;;;;;;30.83;5.53;;;20.80;99.50;;;;;;4990427;28;20034;-66
2022/03/01 01:49:18;;;;;;;26.55;4.65;;;20.80;99.40;;;;;;4991034;28;20037;-65
2022/03/01 01:51:45;;;;;;;26.52;3.38;;;20.90;99.50;;;;;;4991047;28;20033;-65
2022/03/01 01:54:13;;;;;;;29.20;5.18;;;21.00;99.50;;;;;;4991172;28;20018;-66
2022/03/01 01:56:40;;;;;;;27.70;4.97;;;21.10;99.50;;;;;;4989288;28;20014;-65
2022/03/01 01:59:08;;;;;;;32.10;4.32;;;21.00;99.50;;;;;;4990351;28;20053;-65
2022/03/01 02:01:35;;;;;;;27.55;3.97;;;21.10;99.50;;;;;;4990896;28;20096;-66
2022/03/01 02:04:03;;;;;;;23.63;3.45;;;21.20;99.50;;;;;;4992007;28;20113;-66
2022/03/01 02:06:30;;;;;;;25.45;3.17;;;21.10;99.40;;;;;;4977450;28;20105;-65
2022/03/01 02:08:57;;;;;;;26.98;3.55;;;21.10;99.40;;;;;;4994319;28;20022;-65
2022/03/01 02:11:24;;;;;;;26.58;3.63;;;21.00;99.30;;;;;;5008853;28;20030;-66
2022/03/01 02:13:51;;;;;;;16.50;2.38;;;21.00;99.20;;;;;;4994361;28;20022;-65
2022/03/01 02:16:18;;;;;;;19.60;2.80;;;21.00;99.10;;;;;;4993648;28;20612;-66
2022/03/01 02:18:46;;;;;;;31.48;3.00;;;21.10;99.10;;;;;;4992979;28;20109;-66
2022/03/01 02:21:13;;;;;;;27.67;3.50;;;21.20;99.10;;;;;;4993932;28;20030;-66
2022/03/01 02:23:40;;;;;;;22.92;2.80;;;21.20;99.10;;;;;;4994218;28;20029;-66
2022/03/01 02:26:07;;;;;;;24.52;3.65;;;21.20;99.10;;;;;;4992333;28;20105;-65
2022/03/01 02:28:34;;;;;;;20.95;2.95;;;21.30;99.10;;;;;;4992799;28;20015;-65
2022/03/01 02:31:01;;;;;;;25.70;3.97;;;21.30;99.10;;;;;;4992715;28;20063;-65
2022/03/01 02:33:29;;;;;;;10.75;2.65;;;21.30;99.10;;;;;;5008973;28;20019;-65
2022/03/01 02:35:56;;;;;;;26.02;3.85;;;21.10;98.90;;;;;;4994010;28;20026;-66
2022/03/01 02:38:23;;;;;;;17.65;2.78;;;21.10;98.80;;;;;;4994027;28;20416;-65
2022/03/01 02:40:50;;;;;;;19.17;2.85;;;21.00;98.50;;;;;;4993586;28;20030;-65
2022/03/01 02:43:17;;;;;;;21.98;3.83;;;21.10;99.00;;;;;;4992476;28;20053;-65
2022/03/01 02:45:45;;;;;;;18.67;3.75;;;21.20;99.00;;;;;;4993892;28;20027;-66
2022/03/01 02:48:12;;;;;;;18.67;3.17;;;21.00;98.60;;;;;;4993795;28;20015;-66
2022/03/01 02:50:39;;;;;;;23.05;3.10;;;20.90;98.60;;;;;;4992020;28;20023;-65
2022/03/01 02:53:07;;;;;;;17.13;2.40;;;20.90;98.60;;;;;;4991440;28;20255;-65
2022/03/01 02:55:34;;;;;;;22.80;2.97;;;20.90;98.80;;;;;;4992440;28;20018;-65
2022/03/01 02:58:01;;;;;;;26.88;3.47;;;20.80;98.70;;;;;;4993686;28;20022;-66
2022/03/01 03:00:29;;;;;;;19.10;2.50;;;20.80;98.80;;;;;;4992214;28;20073;-66
2022/03/01 03:02:56;;;;;;;24.15;2.95;;;20.80;98.70;;;;;;4993628;28;20500;-65
2022/03/01 03:05:23;;;;;;;24.38;3.30;;;20.70;98.80;;;;;;4993148;28;20400;-66
2022/03/01 03:07:50;;;;;;;18.77;3.30;;;20.70;98.90;;;;;;4993643;28;20057;-66
2022/03/01 03:10:18;;;;;;;23.10;3.95;;;20.70;98.80;;;;;;4997980;28;20388;-66
2022/03/01 03:12:45;;;;;;;21.27;4.70;;;20.70;98.90;;;;;;5012245;28;20329;-67
2022/03/01 03:15:12;;;;;;;20.65;3.05;;;20.80;99.00;;;;;;5003005;28;20288;-66
2022/03/01 03:17:39;;;;;;;21.42;4.00;;;20.80;99.00;;;;;;5002223;28;20025;-67
2022/03/01 03:20:08;;;;;;;17.38;3.63;;;20.90;99.10;;;;;;5001536;28;20096;-66
2022/03/01 03:22:35;;;;;;;27.35;5.13;;;21.00;99.20;;;;;;5007530;28;20022;-66
2022/03/01 03:25:03;;;;;;;39.03;5.20;;;21.00;99.20;;;;;;4995035;28;20060;-67
2022/03/01 03:27:31;;;;;;;33.53;4.85;;;21.20;99.30;;;;;;5011355;28;20472;-67
2022/03/01 03:29:58;;;;;;;35.08;4.93;;;21.20;99.30;;;;;;4994415;28;20053;-66
2022/03/01 03:32:25;;;;;;;33.47;3.55;;;21.00;99.10;;;;;;5011784;28;20022;-67
2022/03/01 03:34:52;;;;;;;28.95;4.15;;;21.00;99.10;;;;;;5005386;28;20034;-66
2022/03/01 03:37:19;;;;;;;33.38;4.78;;;21.00;99.20;;;;;;5005822;28;20029;-66
2022/03/01 03:39:47;;;;;;;26.60;4.63;;;21.10;99.30;;;;;;5010240;28;20076;-66
2022/03/01 03:42:14;;;;;;;31.65;6.05;;;21.10;99.10;;;;;;5010268;28;20029;-67
2022/03/01 03:44:41;;;;;;;28.75;6.32;;;21.20;99.20;;;;;;5009995;28;20083;-66
2022/03/01 03:47:09;;;;;;;18.67;3.65;;;21.20;99.30;;;;;;5004575;28;20435;-67
2022/03/01 03:49:37;;;;;;;28.23;3.17;;;21.10;99.00;;;;;;4991993;28;20515;-67
2022/03/01 03:52:05;;;;;;;19.63;2.60;;;21.00;99.20;;;;;;5011891;28;20029;-66
2022/03/01 03:54:33;;;;;;;21.20;3.28;;;21.00;99.10;;;;;;5011813;28;20026;-67
2022/03/01 03:57:07;;;;;;;24.45;4.65;;;21.00;99.10;;;;;;5009975;28;20014;-67
2022/03/01 03:59:34;;;;;;;17.33;3.60;;;21.00;99.20;;;;;;5010573;28;20137;-67
2022/03/01 04:02:05;;;;;;;21.20;3.47;;;20.70;98.90;;;;;;4974691;28;20493;-67
2022/03/01 04:04:33;;;;;;;15.93;2.20;;;20.50;98.80;;;;;;4976069;28;20026;-67
2022/03/01 04:07:00;;;;;;;17.10;2.15;;;20.50;98.90;;;;;;5005424;28;20034;-66
2022/03/01 04:09:27;;;;;;;17.38;2.88;;;20.40;98.80;;;;;;5011468;28;20128;-65
2022/03/01 04:11:55;;;;;;;33.80;3.78;;;20.40;99.00;;;;;;5011813;28;20032;-66
2022/03/01 04:14:22;;;;;;;27.45;3.15;;;20.50;99.10;;;;;;5011068;28;20216;-66
2022/03/01 04:16:49;;;;;;;26.35;3.70;;;20.50;99.10;;;;;;5010046;28;20029;-68
2022/03/01 04:19:17;;;;;;;40.08;4.60;;;20.60;99.20;;;;;;5011758;28;20049;-68
2022/03/01 04:21:44;;;;;;;30.60;4.65;;;20.70;99.30;;;;;;5010780;28;20038;-67
2022/03/01 04:24:11;;;;;;;29.70;3.92;;;20.70;99.30;;;;;;5011320;28;20026;-66
2022/03/01 04:26:38;;;;;;;33.60;5.47;;;20.80;99.30;;;;;;5010594;28;20148;-65
2022/03/01 04:29:06;;;;;;;28.45;3.58;;;20.80;99.30;;;;;;5011091;28;20037;-66
2022/03/01 04:31:33;;;;;;;29.77;4.90;;;20.80;99.20;;;;;;5011452;28;20049;-66
2022/03/01 04:34:01;;;;;;;46.00;5.75;;;20.80;99.20;;;;;;5011533;28;20022;-66
2022/03/01 04:36:29;;;;;;;31.92;4.70;;;20.80;99.30;;;;;;5009398;28;20018;-66
2022/03/01 04:38:56;;;;;;;37.03;4.72;;;20.80;99.30;;;;;;5010242;28;20088;-67
2022/03/01 04:41:23;;;;;;;29.52;3.47;;;20.80;99.30;;;;;;5009302;28;20033;-65
2022/03/01 04:43:50;;;;;;;27.55;3.47;;;20.90;99.20;;;;;;5011304;28;20053;-66
2022/03/01 04:46:18;;;;;;;34.53;3.90;;;20.80;99.20;;;;;;5010571;28;20624;-65
2022/03/01 04:48:46;;;;;;;33.90;5.13;;;20.80;99.20;;;;;;5010835;28;20529;-66
2022/03/01 04:51:13;;;;;;;21.83;3.25;;;20.90;99.30;;;;;;5010938;28;20021;-66
2022/03/01 04:53:40;;;;;;;28.83;4.45;;;20.70;98.90;;;;;;5009919;28;20029;-64
2022/03/01 04:56:08;;;;;;;32.13;4.00;;;20.80;99.10;;;;;;5009443;28;20075;-64
2022/03/01 04:58:35;;;;;;;21.88;3.72;;;20.70;99.00;;;;;;5010806;28;20037;-64
2022/03/01 05:01:02;;;;;;;29.10;3.30;;;20.80;99.00;;;;;;5008647;28;20049;-65
2022/03/01 05:03:29;;;;;;;33.50;3.83;;;20.80;98.80;;;;;;5009303;28;20479;-65
2022/03/01 05:05:56;;;;;;;33.00;4.78;;;21.00;98.90;;;;;;4992988;28;20155;-65
2022/03/01 05:08:23;;;;;;;31.20;4.18;;;21.00;98.80;;;;;;5009640;28;20049;-64
2022/03/01 05:10:51;;;;;;;15.73;2.65;;;21.00;98.70;;;;;;5009142;28;20021;-65
2022/03/01 05:13:18;;;;;;;30.80;3.75;;;20.90;98.10;;;;;;5010524;28;20053;-64
2022/03/01 05:15:45;;;;;;;23.95;2.60;;;21.00;98.60;;;;;;5010164;28;20097;-65
2022/03/01 05:18:12;;;;;;;19.77;2.70;;;21.00;98.10;;;;;;5010872;28;20026;-65
2022/03/01 05:20:39;;;;;;;22.35;4.10;;;21.00;97.90;;;;;;5009946;28;20045;-67
2022/03/01 05:23:07;;;;;;;23.55;3.28;;;21.00;98.00;;;;;;5009470;28;20025;-67
2022/03/01 05:25:34;;;;;;;21.50;3.45;;;21.00;98.00;;;;;;5007324;28;20053;-67
2022/03/01 05:28:01;;;;;;;22.60;2.78;;;21.10;98.10;;;;;;5009184;28;20058;-67
2022/03/01 05:30:28;;;;;;;13.73;2.33;;;21.10;97.90;;;;;;5010677;28;20025;-67
2022/03/01 05:32:56;;;;;;;19.10;3.13;;;21.20;98.20;;;;;;5008895;28;20022;-66
2022/03/01 05:35:31;;;;;;;16.67;3.10;;;21.00;97.40;;;;;;5004187;28;20053;-66
2022/03/01 05:37:58;;;;;;;25.45;4.10;;;21.00;97.40;;;;;;4973907;28;20455;-66
2022/03/01 05:40:28;;;;;;;24.95;3.00;;;21.00;97.50;;;;;;4996509;28;20036;-67
2022/03/01 05:42:55;;;;;;;;;;;21.00;97.30;;;;;;4981446;28;20053;-66
2022/03/01 05:45:22;;;;;;;15.63;2.63;;;21.10;97.50;;;;;;5013897;28;19912;-66
2022/03/01 05:47:49;;;;;;;18.75;2.63;;;21.10;97.00;;;;;;5012787;28;20033;-66
2022/03/01 05:50:17;;;;;;;24.60;3.85;;;21.20;97.60;;;;;;5012723;28;20550;-66
2022/03/01 05:52:44;;;;;;;18.25;2.83;;;21.30;97.60;;;;;;4996908;28;20037;-66
2022/03/01 05:55:12;;;;;;;28.95;4.10;;;21.20;97.40;;;;;;4996329;28;20381;-66
2022/03/01 05:57:39;;;;;;;21.52;2.70;;;21.30;97.50;;;;;;4996082;28;20028;-67
2022/03/01 06:00:13;;;;;;;17.75;2.83;;;21.30;97.70;;;;;;4996429;28;20037;-66
2022/03/01 06:02:41;;;;;;;24.85;4.57;;;21.20;97.10;;;;;;5012912;28;20026;-66
2022/03/01 06:05:08;;;;;;;20.92;3.58;;;21.30;97.30;;;;;;5014112;28;20084;-66
2022/03/01 06:07:36;;;;;;;18.40;3.58;;;21.30;97.30;;;;;;5012059;28;20022;-65
2022/03/01 06:10:03;;;;;;;24.88;3.63;;;21.30;97.20;;;;;;4996750;28;20018;-64
2022/03/01 06:12:30;;;;;;;15.48;3.00;;;21.20;96.90;;;;;;5013833;28;20083;-68
2022/03/01 06:14:57;;;;;;;23.67;3.80;;;21.20;96.80;;;;;;5012054;28;20022;-67
2022/03/01 06:17:24;;;;;;;17.80;2.92;;;21.20;96.80;;;;;;5013676;28;20068;-66
2022/03/01 06:19:52;;;;;;;23.90;4.50;;;21.30;96.70;;;;;;4995358;28;20538;-65
2022/03/01 06:22:19;;;;;;;27.38;3.38;;;21.20;96.60;;;;;;4996371;28;20030;-66
2022/03/01 06:24:46;;;;;;;18.30;3.30;;;21.30;96.60;;;;;;4996580;28;20014;-66
2022/03/01 06:27:15;;;;;;;19.92;3.33;;;21.30;96.40;;;;;;4995885;28;20080;-67
2022/03/01 06:29:42;;;;;;;16.65;3.80;;;21.30;95.90;;;;;;5003124;28;20054;-68
2022/03/01 06:32:09;;;;;;;14.85;2.60;;;21.10;96.20;;;;;;4993952;28;20080;-66
2022/03/01 06:34:36;;;;;;;26.10;3.28;;;21.10;96.80;;;;;;4994933;28;20043;-66
2022/03/01 06:37:04;;;;;;;20.35;3.13;;;21.00;96.80;;;;;;5012882;28;20099;-66
2022/03/01 06:39:32;;;;;;;33.80;4.63;;;20.90;97.00;;;;;;5012148;28;20029;-65
2022/03/01 06:42:00;;;;;;;17.15;2.90;;;20.90;97.40;;;;;;5013318;28;20510;-66
2022/03/01 06:44:27;;;;;;;18.52;3.30;;;20.80;97.50;;;;;;5009552;28;20489;-66
2022/03/01 06:46:54;;;;;;;26.30;3.55;;;20.80;97.60;;;;;;5010777;28;20034;-67
2022/03/01 06:49:22;;;;;;;36.38;4.10;;;20.70;97.40;;;;;;5012013;28;20369;-67
2022/03/01 06:51:49;;;;;;;23.15;2.85;;;20.60;97.60;;;;;;5007902;28;20402;-65
2022/03/01 06:54:17;;;;;;;21.38;2.92;;;20.60;97.60;;;;;;5011525;28;20041;-66
2022/03/01 06:56:46;;;;;;;20.88;3.53;;;20.70;97.90;;;;;;4991086;28;20499;-66
2022/03/01 06:59:15;;;;;;;21.80;3.75;;;20.60;97.30;;;;;;5004960;28;20042;-66
2022/03/01 07:01:42;;;;;;;12.80;2.92;;;20.60;97.50;;;;;;4989341;28;20049;-66
2022/03/01 07:04:09;;;;;;;18.02;2.58;;;20.50;96.80;;;;;;4991785;28;20030;-67
2022/03/01 07:06:36;;;;;;;17.77;3.65;;;20.50;96.70;;;;;;5009200;28;20029;-66
2022/03/01 07:09:03;;;;;;;17.10;2.95;;;20.60;97.30;;;;;;5011575;28;20022;-65
2022/03/01 07:11:31;;;;;;;16.85;3.53;;;20.60;96.80;;;;;;5011126;28;20026;-66
2022/03/01 07:13:58;;;;;;;26.30;3.38;;;20.70;97.20;;;;;;5002127;28;20030;-66
2022/03/01 07:16:25;;;;;;;23.10;3.35;;;20.80;97.30;;;;;;5007393;28;20025;-65
2022/03/01 07:18:54;;;;;;;15.52;2.45;;;20.80;97.20;;;;;;5011869;28;20018;-66
2022/03/01 07:21:22;;;;;;;23.58;3.38;;;20.70;96.70;;;;;;4991741;28;20038;-67
2022/03/01 07:23:50;;;;;;;16.05;3.05;;;20.80;97.00;;;;;;4994207;28;20069;-67
2022/03/01 07:26:17;;;;;;;26.33;3.65;;;20.70;96.60;;;;;;4993969;28;20030;-66
2022/03/01 07:28:45;;;;;;;18.45;2.50;;;20.80;96.90;;;;;;4991810;28;20065;-67
2022/03/01 07:31:12;;;;;;;20.88;3.03;;;20.90;97.10;;;;;;4992771;28;20030;-67
2022/03/01 07:33:41;;;;;;;22.35;3.85;;;20.90;97.00;;;;;;5005609;28;20548;-67
2022/03/01 07:36:08;;;;;;;22.92;3.45;;;20.90;97.10;;;;;;4993810;28;20033;-66
2022/03/01 07:38:35;;;;;;;15.82;2.92;;;20.90;96.90;;;;;;5011989;28;20049;-67
2022/03/01 07:41:02;;;;;;;22.35;3.15;;;20.90;97.20;;;;;;5011429;28;20053;-67
2022/03/01 07:43:30;;;;;;;15.40;3.00;;;20.80;96.50;;;;;;5001405;28;20114;-66
2022/03/01 07:45:57;;;;;;;13.45;3.75;;;20.80;96.70;;;;;;4992615;28;20378;-66
2022/03/01 07:48:24;;;;;;;27.13;3.92;;;20.90;96.90;;;;;;5010772;28;20028;-66
2022/03/01 07:50:51;;;;;;;23.38;5.38;;;21.00;97.10;;;;;;4994087;28;20489;-67
2022/03/01 07:53:18;;;;;;;11.02;3.20;;;21.10;97.20;;;;;;5005543;28;20053;-66
2022/03/01 07:55:46;;;;;;;20.42;3.42;;;20.80;96.00;;;;;;5007216;28;20037;-67
2022/03/01 07:58:13;;;;;;;13.40;2.45;;;20.70;96.30;;;;;;5010788;28;20160;-67
2022/03/01 08:00:40;;;;;;;21.95;3.83;;;20.50;96.90;;;;;;4997743;28;20074;-68
2022/03/01 08:03:10;;;;;;;24.27;3.83;;;20.50;97.30;;;;;;5008688;28;20032;-68
2022/03/01 08:05:37;;;;;;;23.05;3.10;;;20.40;97.60;;;;;;4998170;28;20384;-67
2022/03/01 08:08:05;;;;;;;30.80;4.00;;;20.40;98.00;;;;;;4999692;28;20034;-67
2022/03/01 08:10:32;;;;;;;28.20;4.68;;;20.50;98.10;;;;;;4993775;28;20451;-67
2022/03/01 08:12:59;;;;;;;30.20;4.03;;;20.50;98.30;;;;;;5011426;28;20127;-66
2022/03/01 08:15:27;;;;;;;31.95;3.63;;;20.50;98.40;;;;;;5011205;28;20026;-67
2022/03/01 08:17:56;;;;;;;32.58;4.10;;;20.60;98.40;;;;;;5011816;28;20049;-67
2022/03/01 08:20:23;;;;;;;38.40;4.68;;;20.60;98.40;;;;;;5005108;28;20026;-66
2022/03/01 08:22:50;;;;;;;28.42;3.92;;;20.50;98.40;;;;;;5010210;28;20026;-66
2022/03/01 08:25:18;;;;;;;40.35;4.07;;;20.50;98.40;;;;;;4990677;28;20034;-66
2022/03/01 08:27:46;;;;;;;31.58;4.93;;;20.50;98.50;;;;;;5002636;28;20033;-67
2022/03/01 08:30:13;;;;;;;31.48;3.60;;;20.50;98.50;;;;;;5010296;28;20036;-66
2022/03/01 08:32:40;;;;;;;30.65;3.70;;;20.60;98.60;;;;;;5005501;28;20102;-66
2022/03/01 08:35:08;;;;;;;18.90;2.80;;;20.50;98.60;;;;;;5008927;28;20026;-66
2022/03/01 08:37:35;;;;;;;21.73;3.20;;;20.60;98.60;;;;;;4993565;28;20060;-66
2022/03/01 08:40:03;;;;;;;22.38;2.90;;;20.60;98.70;;;;;;5009388;28;20025;-65
2022/03/01 08:42:30;;;;;;;21.67;3.20;;;20.60;98.70;;;;;;4993588;28;20107;-67
2022/03/01 08:44:57;;;;;;;25.88;2.90;;;20.70;98.80;;;;;;5011554;28;20021;-67
2022/03/01 08:47:26;;;;;;;28.23;3.45;;;20.70;98.80;;;;;;5005770;28;20084;-67
2022/03/01 08:49:53;;;;;;;29.13;3.28;;;20.70;98.90;;;;;;5002863;28;20098;-68
2022/03/01 08:52:21;;;;;;;22.42;2.75;;;20.70;98.80;;;;;;4990621;28;20032;-67
2022/03/01 08:54:48;;;;;;;14.93;2.55;;;20.60;98.60;;;;;;5004478;28;20053;-67
2022/03/01 08:57:15;;;;;;;14.55;2.38;;;20.50;98.60;;;;;;5006184;28;20140;-67
2022/03/01 08:59:42;;;;;;;28.65;2.67;;;20.30;98.30;;;;;;5004856;28;20088;-65
2022/03/01 09:02:10;;;;;;;21.88;3.40;;;20.40;98.50;;;;;;5004694;28;20045;-67
2022/03/01 09:04:37;;;;;;;20.58;3.00;;;20.40;98.40;;;;;;5003406;28;20033;-66
2022/03/01 09:07:04;;;;;;;22.42;3.30;;;20.40;98.40;;;;;;5004612;28;20140;-68
2022/03/01 09:09:32;;;;;;;19.75;2.72;;;20.40;98.40;;;;;;5010175;28;20036;-65
2022/03/01 09:11:59;;;;;;;17.35;3.00;;;20.30;98.20;;;;;;5009523;28;20483;-65
2022/03/01 09:14:27;;;;;;;17.70;2.40;;;20.30;98.00;;;;;;5007993;28;20041;-66
2022/03/01 09:16:54;;;;;;;16.58;2.78;;;20.40;98.30;;;;;;5008997;28;20112;-67
2022/03/01 09:19:21;;;;;;;16.17;2.92;;;20.50;98.30;;;;;;5010174;28;20041;-67
2022/03/01 09:21:49;;;;;;;35.13;6.03;;;20.50;98.20;;;;;;5009570;28;20124;-67
2022/03/01 09:24:16;;;;;;;22.67;3.38;;;20.50;98.00;;;;;;5006059;28;20022;-67
2022/03/01 09:26:43;;;;;;;20.90;3.05;;;20.50;98.00;;;;;;5010287;28;20061;-66
2022/03/01 09:29:10;;;;;;;26.58;4.18;;;20.50;98.00;;;;;;5007036;28;20080;-65
2022/03/01 09:31:37;;;;;;;21.08;4.03;;;20.70;98.20;;;;;;5010454;28;20026;-65
2022/03/01 09:34:05;;;;;;;23.30;2.92;;;20.60;98.10;;;;;;5008442;28;20058;-65
2022/03/01 09:36:32;;;;;;;16.42;2.67;;;20.70;98.10;;;;;;5009880;28;20025;-66
2022/03/01 09:38:59;;;;;;;16.60;2.78;;;20.50;97.80;;;;;;5009225;28;20035;-65
2022/03/01 09:41:26;;;;;;;19.05;3.33;;;20.50;97.70;;;;;;4991367;28;20380;-65
2022/03/01 09:43:54;;;;;;;16.60;2.75;;;20.50;97.70;;;;;;4986019;28;20042;-66
2022/03/01 09:46:21;;;;;;;14.70;2.70;;;20.40;97.30;;;;;;5012489;28;20033;-66
2022/03/01 09:48:48;;;;;;;18.15;2.83;;;20.50;97.50;;;;;;5011944;28;20577;-67
2022/03/01 09:51:16;;;;;;;17.50;2.55;;;20.50;97.50;;;;;;4991649;28;20041;-68
2022/03/01 09:53:43;;;;;;;14.25;2.63;;;20.60;97.50;;;;;;4990025;28;20138;-66
2022/03/01 09:56:10;;;;;;;20.42;2.53;;;20.60;97.40;;;;;;5009665;28;20033;-68
2022/03/01 09:58:39;;;;;;;23.00;3.40;;;20.50;97.30;;;;;;4975424;28;20046;-67
2022/03/01 10:01:06;;;;;;;14.52;3.00;;;20.50;97.30;;;;;;5009103;28;20044;-65
2022/03/01 10:03:36;;;;;;;15.75;2.28;;;20.50;97.30;;;;;;5008430;28;20025;-66
2022/03/01 10:06:07;;;;;;;12.13;2.20;;;20.50;96.90;;;;;;5008309;28;20482;-66
2022/03/01 10:08:35;;;;;;;14.20;3.00;;;20.50;96.90;;;;;;5009327;28;20030;-66
2022/03/01 10:11:02;;;;;;;14.57;2.33;;;20.60;97.30;;;;;;5007913;28;20026;-66
2022/03/01 10:13:31;;;;;;;12.90;2.28;;;20.70;97.30;;;;;;5003519;28;20033;-65
2022/03/01 10:16:10;;;;;;;17.92;2.55;;;20.50;96.20;;;;;;5008461;28;20030;-65
2022/03/01 10:18:42;;;;;;;13.48;2.47;;;20.60;96.70;;;;;;5009635;28;20018;-65
2022/03/01 10:21:13;;;;;;;13.63;2.45;;;20.60;96.20;;;;;;5008386;28;20084;-65
2022/03/01 10:23:47;;;;;;;14.65;2.80;;;20.60;96.40;;;;;;4999609;28;20048;-66
2022/03/01 10:26:22;;;;;;;11.82;2.15;;;20.60;96.10;;;;;;4998317;28;20026;-65
2022/03/01 10:28:50;;;;;;;13.80;2.40;;;20.60;96.00;;;;;;5007350;28;20413;-64
2022/03/01 10:31:25;;;;;;;17.20;2.50;;;20.60;96.10;;;;;;5011051;28;20026;-66
2022/03/01 10:34:06;;;;;;;13.95;2.45;;;20.80;96.40;;;;;;4995503;28;20392;-65
2022/03/01 10:36:36;;;;;;;16.45;2.40;;;20.80;96.40;;;;;;5005161;28;20072;-66
2022/03/01 10:39:15;;;;;;;14.90;2.60;;;20.80;96.60;;;;;;4994711;28;20037;-66
2022/03/01 10:41:44;;;;;;;10.32;2.10;;;20.70;96.30;;;;;;5007307;28;20054;-66
2022/03/01 10:44:15;;;;;;;15.75;2.47;;;20.70;96.00;;;;;;5004194;28;20554;-66
2022/03/01 10:46:47;;;;;;;15.20;2.30;;;20.70;96.40;;;;;;4996907;28;20030;-65
2022/03/01 10:49:16;;;;;;;7.72;1.88;;;20.70;96.50;;;;;;4980702;28;20030;-66
2022/03/01 10:52:08;;;;;;;15.75;3.33;;;20.70;96.20;;;;;;5001941;28;20500;-66
2022/03/01 10:54:43;;;;;;;8.15;2.20;;;20.70;96.50;;;;;;5014017;28;20476;-67
2022/03/01 10:57:23;;;;;;;11.15;2.20;;;20.70;96.00;;;;;;5000258;28;20109;-68
2022/03/01 10:59:50;;;;;;;13.93;1.95;;;20.60;94.90;;;;;;5016896;28;20123;-67
2022/03/01 11:02:18;;;;;;;8.43;2.13;;;20.60;95.40;;;;;;5006418;28;20045;-68
2022/03/01 11:04:46;;;;;;;9.60;2.05;;;20.60;94.90;;;;;;5000974;28;20034;-67
2022/03/01 11:07:13;;;;;;;24.13;3.05;;;20.70;95.50;;;;;;4987877;28;20494;-67
2022/03/01 11:09:41;;;;;;;10.40;2.50;;;20.80;95.90;;;;;;4994221;28;20030;-68
2022/03/01 11:12:09;;;;;;;12.95;2.25;;;20.80;95.90;;;;;;4988769;28;20026;-67
2022/03/01 11:14:53;;;;;;;14.57;2.63;;;20.80;96.20;;;;;;5004830;28;20022;-66
2022/03/01 11:17:56;;;;;;;16.35;2.33;;;20.80;96.10;;;;;;5007258;28;20079;-66
2022/03/01 11:20:25;;;;;;;17.90;2.33;;;20.80;95.70;;;;;;5008333;28;20028;-65
2022/03/01 11:23:08;;;;;;;19.10;2.87;;;20.90;96.30;;;;;;4972388;28;20065;-66
2022/03/01 11:25:40;;;;;;;13.23;3.03;;;21.00;96.50;;;;;;5006070;28;20028;-64
2022/03/01 11:28:09;;;;;;;17.90;3.78;;;21.00;96.60;;;;;;5005783;28;20030;-64
2022/03/01 11:30:38;;;;;;;17.88;3.92;;;21.00;96.20;;;;;;5006664;28;20050;-64
2022/03/01 11:33:05;;;;;;;21.98;3.72;;;21.00;96.30;;;;;;4999929;28;20018;-65
2022/03/01 11:35:35;;;;;;;13.27;2.58;;;21.00;96.30;;;;;;4993096;28;20022;-64
2022/03/01 11:38:12;;;;;;;16.30;3.72;;;21.00;96.60;;;;;;5005404;28;20120;-64
2022/03/01 11:40:50;;;;;;;19.98;3.30;;;20.90;96.40;;;;;;5010416;28;20075;-65
2022/03/01 11:43:23;;;;;;;17.30;3.30;;;20.90;96.10;;;;;;5008351;28;20388;-65
2022/03/01 11:45:55;;;;;;;16.05;3.13;;;20.90;95.80;;;;;;5010973;28;20033;-65
2022/03/01 11:48:26;;;;;;;13.23;2.53;;;20.90;95.40;;;;;;5009393;28;20722;-66
2022/03/01 11:51:04;;;;;;;17.13;2.65;;;20.90;95.30;;;;;;5007923;28;20499;-65
2022/03/01 11:53:38;;;;;;;14.18;2.78;;;21.00;95.40;;;;;;5008383;28;20088;-64
2022/03/01 11:56:07;;;;;;;21.65;3.28;;;21.00;95.10;;;;;;5009733;28;20105;-65
2022/03/01 11:58:34;;;;;;;15.38;3.22;;;21.10;95.30;;;;;;5011151;28;20030;-65
2022/03/01 12:01:05;;;;;;;16.42;3.20;;;21.10;95.30;;;;;;5025882;28;20036;-65
2022/03/01 12:03:35;;;;;;;16.90;3.22;;;21.10;95.20;;;;;;5014421;28;20026;-65
2022/03/01 12:06:02;;;;;;;19.70;3.42;;;21.10;95.00;;;;;;5002806;28;20033;-65
2022/03/01 12:08:29;;;;;;;19.50;3.42;;;21.10;94.90;;;;;;4987080;28;20546;-65
2022/03/01 12:11:09;;;;;;;16.60;2.67;;;21.10;94.20;;;;;;5001525;28;20472;-64
2022/03/01 12:13:46;;;;;;;14.45;3.08;;;21.10;93.60;;;;;;5010193;28;20088;-64
2022/03/01 12:16:26;;;;;;;14.15;2.63;;;21.10;92.90;;;;;;5001631;28;20574;-64
2022/03/01 12:19:03;;;;;;;18.92;3.05;;;21.10;92.50;;;;;;4995655;28;20110;-65
2022/03/01 12:21:30;;;;;;;19.60;3.20;;;21.20;92.20;;;;;;5005745;28;20137;-66
2022/03/01 12:23:57;;;;;;;15.05;2.60;;;21.20;91.90;;;;;;5007648;28;20021;-65
2022/03/01 12:26:24;;;;;;;13.40;2.42;;;21.20;91.80;;;;;;5010765;28;20037;-65
2022/03/01 12:28:52;;;;;;;11.32;2.97;;;21.20;91.70;;;;;;5009398;28;20109;-66
2022/03/01 12:31:23;;;;;;;16.60;3.22;;;21.20;92.30;;;;;;4990472;28;20096;-65
2022/03/01 12:33:54;;;;;;;15.68;2.90;;;21.20;92.30;;;;;;5010359;28;20472;-65
2022/03/01 12:36:25;;;;;;;20.58;2.70;;;21.20;92.40;;;;;;5009073;28;20038;-64
2022/03/01 12:38:52;;;;;;;;;;;21.20;92.90;;;;;;4995672;28;21692;-65
2022/03/01 12:41:23;;;;;;;18.33;3.17;;;21.20;93.10;;;;;;5009959;28;19921;-65
2022/03/01 12:43:58;;;;;;;17.92;3.15;;;21.10;93.40;;;;;;5010062;28;20056;-65
2022/03/01 12:46:26;;;;;;;13.98;2.80;;;21.10;93.70;;;;;;5005045;28;20030;-65